Time;durP1;ratioP1;P1;durP2;ratioP2;P2;SDS_P1;SDS_P2;PMS_P1;PMS_P2;Temp;Humidity;BMP_temperature;BMP_pressure;BME280_temperature;BME280_humidity;BME280_pressure;Samples;Min_cycle;Max_cycle;Signal;HPM_P1;HPM_P2
2023/11/23 00:00:09;;;;;;;4.63;2.70;;;;;;;;;;520487;28;1341;-73
2023/11/23 00:00:24;;;;;;;3.47;2.53;;;;;;;;;;520404;28;1066;-73
2023/11/23 00:00:40;;;;;;;3.03;2.47;;;;;;;;;;523268;28;1353;-73
2023/11/23 00:00:55;;;;;;;3.13;2.50;;;;;;;;;;523630;28;1384;-72
2023/11/23 00:01:10;;;;;;;3.43;2.50;;;;;;;;;;523334;28;1367;-72
2023/11/23 00:01:25;;;;;;;3.83;2.57;;;;;;;;;;520997;28;1308;-72
2023/11/23 00:01:41;;;;;;;3.60;2.60;;;;;;;;;;519195;28;1224;-73
2023/11/23 00:01:57;;;;;;;3.13;2.55;;;;;;;;;;519827;28;1421;-72
2023/11/23 00:02:12;;;;;;;3.58;2.60;;;;;;;;;;519161;28;1421;-72
2023/11/23 00:02:27;;;;;;;3.70;2.50;;;;;;;;;;519242;28;1052;-72
2023/11/23 00:02:43;;;;;;;3.70;2.40;;;;;;;;;;517021;28;1454;-72
2023/11/23 00:02:58;;;;;;;3.88;2.47;;;;;;;;;;514971;28;1497;-73
2023/11/23 00:03:14;;;;;;;3.37;2.60;;;;;;;;;;515391;28;1131;-72
2023/11/23 00:03:29;;;;;;;3.33;2.50;;;;;;;;;;514991;28;1260;-72
2023/11/23 00:03:45;;;;;;;3.63;2.50;;;;;;;;;;516219;28;1766;-72
2023/11/23 00:04:00;;;;;;;3.80;2.70;;;;;;;;;;517198;28;1471;-72
2023/11/23 00:04:15;;;;;;;3.70;2.80;;;;;;;;;;517259;28;1422;-72
2023/11/23 00:04:31;;;;;;;4.90;2.80;;;;;;;;;;517186;28;2690;-72
2023/11/23 00:04:48;;;;;;;5.00;2.70;;;;;;;;;;203005;28;10000892;-72
2023/11/23 00:05:04;;;;;;;3.30;2.50;;;;;;;;;;521425;28;1428;-72
2023/11/23 00:05:20;;;;;;;3.35;2.60;;;;;;;;;;520697;28;1273;-72
2023/11/23 00:05:36;;;;;;;3.25;2.58;;;;;;;;;;523007;28;1388;-72
2023/11/23 00:05:51;;;;;;;3.30;2.50;;;;;;;;;;523206;28;1266;-72
2023/11/23 00:06:06;;;;;;;3.87;2.60;;;;;;;;;;523160;28;1423;-72
2023/11/23 00:06:22;;;;;;;4.53;2.73;;;;;;;;;;522623;28;2167;-72
2023/11/23 00:06:37;;;;;;;4.50;2.60;;;;;;;;;;523484;28;1340;-73
2023/11/23 00:06:52;;;;;;;3.73;2.50;;;;;;;;;;523288;28;1412;-73
2023/11/23 00:07:07;;;;;;;3.50;2.70;;;;;;;;;;521179;28;1448;-72
2023/11/23 00:07:23;;;;;;;3.45;2.70;;;;;;;;;;521423;28;1557;-72
2023/11/23 00:07:38;;;;;;;3.53;2.63;;;;;;;;;;521355;28;1449;-72
2023/11/23 00:07:55;;;;;;;3.78;2.70;;;;;;;;;;521080;28;1869;-72
2023/11/23 00:08:11;;;;;;;3.92;2.80;;;;;;;;;;520817;28;1194;-72
2023/11/23 00:08:27;;;;;;;4.32;2.80;;;;;;;;;;521851;28;1137;-73
2023/11/23 00:08:43;;;;;;;3.80;2.80;;;;;;;;;;521409;28;1411;-72
2023/11/23 00:08:59;;;;;;;3.55;2.75;;;;;;;;;;521776;28;1681;-72
2023/11/23 00:09:14;;;;;;;4.20;2.90;;;;;;;;;;521925;28;1432;-72
2023/11/23 00:09:29;;;;;;;4.40;2.97;;;;;;;;;;522991;28;1530;-73
2023/11/23 00:09:45;;;;;;;3.85;2.80;;;;;;;;;;520753;28;1243;-72
2023/11/23 00:10:00;;;;;;;3.43;2.73;;;;;;;;;;520737;28;1377;-72
2023/11/23 00:10:15;;;;;;;3.30;2.73;;;;;;;;;;520594;28;1571;-73
2023/11/23 00:10:31;;;;;;;3.47;2.70;;;;;;;;;;520561;28;1238;-72
2023/11/23 00:10:46;;;;;;;3.67;2.70;;;;;;;;;;520957;28;1372;-72
2023/11/23 00:11:01;;;;;;;4.20;2.70;;;;;;;;;;520515;28;1771;-72
2023/11/23 00:11:16;;;;;;;4.25;2.80;;;;;;;;;;520093;28;2116;-72
2023/11/23 00:11:32;;;;;;;4.67;2.80;;;;;;;;;;520400;28;1277;-73
2023/11/23 00:11:47;;;;;;;4.53;2.83;;;;;;;;;;522801;28;1303;-72
2023/11/23 00:12:03;;;;;;;3.85;2.85;;;;;;;;;;522590;28;1194;-73
2023/11/23 00:12:18;;;;;;;3.97;2.90;;;;;;;;;;522474;28;1230;-72
2023/11/23 00:12:33;;;;;;;4.28;2.95;;;;;;;;;;523131;28;1400;-73
2023/11/23 00:12:49;;;;;;;3.93;2.70;;;;;;;;;;522997;28;1841;-72
2023/11/23 00:13:04;;;;;;;3.10;2.60;;;;;;;;;;522885;28;1369;-72
2023/11/23 00:13:19;;;;;;;3.90;2.77;;;;;;;;;;522783;28;1326;-72
2023/11/23 00:13:35;;;;;;;4.38;3.00;;;;;;;;;;520911;28;1420;-72
2023/11/23 00:13:51;;;;;;;3.87;3.00;;;;;;;;;;520651;28;1466;-72
2023/11/23 00:14:06;;;;;;;3.67;2.78;;;;;;;;;;520625;28;1338;-72
2023/11/23 00:14:22;;;;;;;3.77;2.70;;;;;;;;;;520554;28;2084;-72
2023/11/23 00:14:37;;;;;;;3.60;2.70;;;;;;;;;;519062;28;1279;-72
2023/11/23 00:14:52;;;;;;;3.60;2.80;;;;;;;;;;519215;28;1195;-72
2023/11/23 00:15:08;;;;;;;4.03;2.90;;;;;;;;;;518417;28;1325;-72
2023/11/23 00:15:23;;;;;;;3.65;2.78;;;;;;;;;;519460;28;1386;-72
2023/11/23 00:15:39;;;;;;;3.53;2.73;;;;;;;;;;520209;28;1234;-72
2023/11/23 00:15:54;;;;;;;3.57;2.70;;;;;;;;;;520479;28;1918;-72
2023/11/23 00:16:09;;;;;;;3.40;2.67;;;;;;;;;;519201;28;1429;-72
2023/11/23 00:16:24;;;;;;;3.53;2.90;;;;;;;;;;520145;28;1463;-72
2023/11/23 00:16:43;;;;;;;4.10;2.93;;;;;;;;;;522157;28;1388;-72
2023/11/23 00:16:58;;;;;;;4.22;2.97;;;;;;;;;;521386;28;1273;-72
2023/11/23 00:17:15;;;;;;;4.43;2.93;;;;;;;;;;521907;28;1352;-72
2023/11/23 00:17:30;;;;;;;6.05;3.05;;;;;;;;;;522491;28;1268;-72
2023/11/23 00:17:46;;;;;;;6.37;2.90;;;;;;;;;;523268;28;1805;-72
2023/11/23 00:18:01;;;;;;;4.63;2.80;;;;;;;;;;523138;28;1407;-72
2023/11/23 00:18:16;;;;;;;4.07;3.00;;;;;;;;;;523352;28;1439;-72
2023/11/23 00:18:32;;;;;;;3.50;2.90;;;;;;;;;;520175;28;1795;-72
2023/11/23 00:18:47;;;;;;;3.80;2.80;;;;;;;;;;520786;28;1429;-72
2023/11/23 00:19:02;;;;;;;3.87;2.73;;;;;;;;;;518381;28;1571;-72
2023/11/23 00:19:17;;;;;;;3.57;2.90;;;;;;;;;;518753;28;2026;-72
2023/11/23 00:19:33;;;;;;;3.50;2.93;;;;;;;;;;519043;28;1295;-72
2023/11/23 00:19:48;;;;;;;3.40;2.80;;;;;;;;;;519261;28;1291;-73
2023/11/23 00:20:09;;;;;;;3.60;2.80;;;;;;;;;;518567;28;1525;-72
2023/11/23 00:20:24;;;;;;;3.85;2.80;;;;;;;;;;517156;28;1315;-73
2023/11/23 00:20:40;;;;;;;4.40;2.83;;;;;;;;;;517997;28;1382;-74
2023/11/23 00:20:55;;;;;;;4.65;3.10;;;;;;;;;;519944;28;1445;-72
2023/11/23 00:21:10;;;;;;;4.90;3.10;;;;;;;;;;521081;28;1894;-72
2023/11/23 00:21:26;;;;;;;4.80;3.00;;;;;;;;;;521130;28;1078;-72
2023/11/23 00:21:41;;;;;;;4.78;3.00;;;;;;;;;;521325;28;1219;-72
2023/11/23 00:21:57;;;;;;;5.57;3.03;;;;;;;;;;520978;28;1409;-72
2023/11/23 00:22:12;;;;;;;4.40;2.93;;;;;;;;;;521361;28;1369;-73
2023/11/23 00:22:28;;;;;;;4.18;2.95;;;;;;;;;;523300;28;1301;-72
2023/11/23 00:22:43;;;;;;;4.13;3.10;;;;;;;;;;523312;28;1715;-72
2023/11/23 00:22:59;;;;;;;4.13;3.10;;;;;;;;;;522504;28;2147;-72
2023/11/23 00:23:14;;;;;;;4.13;2.93;;;;;;;;;;523171;28;1364;-73
2023/11/23 00:23:31;;;;;;;3.70;2.97;;;;;;;;;;523215;28;1326;-72
2023/11/23 00:23:47;;;;;;;3.47;2.83;;;;;;;;;;522716;28;1364;-72
2023/11/23 00:24:02;;;;;;;3.27;2.73;;;;;;;;;;523025;28;1268;-72
2023/11/23 00:24:17;;;;;;;3.65;2.92;;;;;;;;;;522667;28;1456;-72
2023/11/23 00:24:33;;;;;;;4.00;3.00;;;;;;;;;;520881;28;1921;-72
2023/11/23 00:24:48;;;;;;;4.53;3.10;;;;;;;;;;521471;28;1915;-72
2023/11/23 00:25:04;;;;;;;4.93;3.22;;;;;;;;;;523908;28;1084;-72
2023/11/23 00:25:20;;;;;;;4.32;3.20;;;;;;;;;;523150;28;1329;-72
2023/11/23 00:25:35;;;;;;;3.78;3.03;;;;;;;;;;523526;28;1235;-72
2023/11/23 00:25:51;;;;;;;4.43;3.00;;;;;;;;;;523510;28;1357;-72
2023/11/23 00:26:06;;;;;;;4.53;3.00;;;;;;;;;;523016;28;1869;-72
2023/11/23 00:26:23;;;;;;;3.80;3.15;;;;;;;;;;523217;28;1435;-72
2023/11/23 00:26:38;;;;;;;4.22;3.20;;;;;;;;;;523466;28;1251;-72
2023/11/23 00:26:54;;;;;;;4.47;3.00;;;;;;;;;;523616;28;1420;-72
2023/11/23 00:27:09;;;;;;;4.27;3.07;;;;;;;;;;523398;28;1420;-72
2023/11/23 00:27:24;;;;;;;4.10;3.10;;;;;;;;;;523064;28;1106;-73
2023/11/23 00:27:40;;;;;;;4.03;3.10;;;;;;;;;;521676;28;1841;-72
2023/11/23 00:27:55;;;;;;;4.07;3.10;;;;;;;;;;522743;28;1257;-72
2023/11/23 00:28:10;;;;;;;4.03;3.10;;;;;;;;;;520882;28;1416;-73
2023/11/23 00:28:26;;;;;;;4.00;3.10;;;;;;;;;;521285;28;1255;-73
2023/11/23 00:28:41;;;;;;;4.03;3.00;;;;;;;;;;521245;28;1393;-73
2023/11/23 00:28:56;;;;;;;3.85;2.92;;;;;;;;;;521334;28;1409;-73
2023/11/23 00:29:11;;;;;;;4.03;3.00;;;;;;;;;;521107;28;1365;-73
2023/11/23 00:29:27;;;;;;;4.10;3.13;;;;;;;;;;520962;28;1913;-73
2023/11/23 00:29:42;;;;;;;4.20;3.33;;;;;;;;;;521369;28;823;-72
2023/11/23 00:29:57;;;;;;;4.22;3.25;;;;;;;;;;520769;28;1896;-73
2023/11/23 00:30:13;;;;;;;4.50;3.30;;;;;;;;;;522968;28;1337;-73
2023/11/23 00:30:28;;;;;;;4.65;3.45;;;;;;;;;;521521;28;1427;-72
2023/11/23 00:30:43;;;;;;;4.50;3.50;;;;;;;;;;521049;28;1395;-73
2023/11/23 00:30:59;;;;;;;4.93;3.30;;;;;;;;;;521105;28;1715;-73
2023/11/23 00:31:14;;;;;;;4.53;3.03;;;;;;;;;;521000;28;1373;-73
2023/11/23 00:31:29;;;;;;;4.17;3.20;;;;;;;;;;521263;28;1404;-73
2023/11/23 00:31:45;;;;;;;4.50;3.30;;;;;;;;;;521385;28;1444;-72
2023/11/23 00:32:00;;;;;;;4.50;3.40;;;;;;;;;;520621;28;1393;-73
2023/11/23 00:32:15;;;;;;;4.93;3.45;;;;;;;;;;521013;28;1424;-73
2023/11/23 00:32:31;;;;;;;5.10;3.60;;;;;;;;;;521728;28;1912;-73
2023/11/23 00:32:46;;;;;;;5.43;3.67;;;;;;;;;;523168;28;1174;-73
2023/11/23 00:33:02;;;;;;;4.72;3.30;;;;;;;;;;523119;28;1353;-73
2023/11/23 00:33:17;;;;;;;4.20;3.15;;;;;;;;;;521228;28;1094;-73
2023/11/23 00:33:32;;;;;;;4.77;3.30;;;;;;;;;;521328;28;1416;-72
2023/11/23 00:33:48;;;;;;;4.67;3.37;;;;;;;;;;521003;28;1408;-73
2023/11/23 00:34:06;;;;;;;4.10;3.40;;;;;;;;;;521216;28;1348;-73
2023/11/23 00:34:21;;;;;;;3.92;3.25;;;;;;;;;;523275;28;1558;-72
2023/11/23 00:34:36;;;;;;;4.80;3.17;;;;;;;;;;522795;28;1377;-73
2023/11/23 00:34:51;;;;;;;5.27;3.30;;;;;;;;;;520834;28;1302;-73
2023/11/23 00:35:07;;;;;;;4.18;3.30;;;;;;;;;;518973;28;1441;-73
2023/11/23 00:35:22;;;;;;;3.90;3.30;;;;;;;;;;518622;28;1354;-73
2023/11/23 00:35:38;;;;;;;4.30;3.35;;;;;;;;;;518981;28;1700;-72
2023/11/23 00:35:54;;;;;;;5.37;3.30;;;;;;;;;;516645;28;1320;-73
2023/11/23 00:36:10;;;;;;;5.43;3.40;;;;;;;;;;516794;28;1605;-73
2023/11/23 00:36:25;;;;;;;5.28;3.33;;;;;;;;;;518232;28;1383;-72
2023/11/23 00:36:40;;;;;;;4.80;3.30;;;;;;;;;;516978;28;1826;-72
2023/11/23 00:36:56;;;;;;;4.70;3.50;;;;;;;;;;519230;28;1421;-72
2023/11/23 00:37:11;;;;;;;4.90;3.63;;;;;;;;;;519105;28;1405;-73
2023/11/23 00:37:28;;;;;;;4.27;3.47;;;;;;;;;;518314;28;2068;-73
2023/11/23 00:37:44;;;;;;;4.20;3.40;;;;;;;;;;518826;28;1254;-72
2023/11/23 00:38:01;;;;;;;4.65;3.50;;;;;;;;;;521233;28;1420;-73
2023/11/23 00:38:18;;;;;;;4.70;3.50;;;;;;;;;;523257;28;1446;-72
2023/11/23 00:38:34;;;;;;;4.15;3.40;;;;;;;;;;520424;28;1271;-73
2023/11/23 00:38:49;;;;;;;3.90;3.40;;;;;;;;;;520382;28;1916;-73
2023/11/23 00:39:05;;;;;;;4.27;3.40;;;;;;;;;;521003;28;1444;-73
2023/11/23 00:39:21;;;;;;;4.32;3.17;;;;;;;;;;520752;28;1480;-72
2023/11/23 00:39:36;;;;;;;4.17;3.20;;;;;;;;;;520117;28;1353;-72
2023/11/23 00:39:52;;;;;;;3.72;3.10;;;;;;;;;;521568;28;1727;-73
2023/11/23 00:40:07;;;;;;;4.33;3.30;;;;;;;;;;521588;28;1684;-73
2023/11/23 00:40:23;;;;;;;4.43;3.47;;;;;;;;;;519995;28;1653;-73
2023/11/23 00:40:38;;;;;;;4.23;3.50;;;;;;;;;;521498;28;2223;-73
2023/11/23 00:40:53;;;;;;;5.07;3.73;;;;;;;;;;521622;28;1397;-73
2023/11/23 00:41:08;;;;;;;4.78;3.50;;;;;;;;;;521598;28;1385;-73
2023/11/23 00:41:24;;;;;;;4.30;3.40;;;;;;;;;;521612;28;1361;-73
2023/11/23 00:41:39;;;;;;;4.53;3.50;;;;;;;;;;521720;28;1412;-73
2023/11/23 00:41:54;;;;;;;4.45;3.35;;;;;;;;;;519589;28;1433;-72
2023/11/23 00:42:10;;;;;;;4.00;3.20;;;;;;;;;;519473;28;2746;-73
2023/11/23 00:42:25;;;;;;;4.03;3.40;;;;;;;;;;521444;28;1393;-73
2023/11/23 00:42:40;;;;;;;4.65;3.50;;;;;;;;;;521458;28;1409;-73
2023/11/23 00:42:56;;;;;;;5.07;3.33;;;;;;;;;;521746;28;1409;-73
2023/11/23 00:43:11;;;;;;;4.70;3.30;;;;;;;;;;521513;28;1404;-73
2023/11/23 00:43:26;;;;;;;3.97;3.35;;;;;;;;;;521598;28;1520;-73
2023/11/23 00:43:42;;;;;;;4.73;3.30;;;;;;;;;;521605;28;1905;-73
2023/11/23 00:43:57;;;;;;;5.63;3.47;;;;;;;;;;521282;28;1459;-72
2023/11/23 00:44:12;;;;;;;4.90;3.45;;;;;;;;;;521040;28;1393;-73
2023/11/23 00:44:27;;;;;;;4.10;3.30;;;;;;;;;;521472;28;1173;-73
2023/11/23 00:44:43;;;;;;;4.07;3.30;;;;;;;;;;520702;28;1603;-73
2023/11/23 00:44:58;;;;;;;4.27;3.40;;;;;;;;;;516832;28;1961;-73
2023/11/23 00:45:15;;;;;;;4.25;3.30;;;;;;;;;;518825;28;1366;-73
2023/11/23 00:45:30;;;;;;;4.32;3.30;;;;;;;;;;518180;28;2202;-72
2023/11/23 00:45:45;;;;;;;4.67;3.47;;;;;;;;;;519057;28;1402;-72
2023/11/23 00:46:03;;;;;;;5.00;3.40;;;;;;;;;;518859;28;1849;-72
2023/11/23 00:46:18;;;;;;;4.60;3.20;;;;;;;;;;519419;28;1599;-73
2023/11/23 00:46:36;;;;;;;3.63;3.20;;;;;;;;;;520049;28;1607;-73
2023/11/23 00:46:51;;;;;;;4.32;3.47;;;;;;;;;;521443;28;1319;-72
2023/11/23 00:47:07;;;;;;;4.63;3.40;;;;;;;;;;518820;28;1621;-73
2023/11/23 00:47:22;;;;;;;4.17;3.27;;;;;;;;;;519465;28;1524;-73
2023/11/23 00:47:37;;;;;;;4.43;3.38;;;;;;;;;;519694;28;1386;-73
2023/11/23 00:47:53;;;;;;;4.63;3.40;;;;;;;;;;520272;28;1369;-73
2023/11/23 00:48:08;;;;;;;4.38;3.38;;;;;;;;;;521248;28;1414;-73
2023/11/23 00:48:23;;;;;;;3.90;3.30;;;;;;;;;;521334;28;1611;-73
2023/11/23 00:48:38;;;;;;;4.00;3.30;;;;;;;;;;520326;28;1541;-72
2023/11/23 00:48:55;;;;;;;4.43;3.23;;;;;;;;;;521350;28;1172;-73
2023/11/23 00:49:10;;;;;;;4.28;3.20;;;;;;;;;;523145;28;1376;-73
2023/11/23 00:49:27;;;;;;;4.03;3.30;;;;;;;;;;523689;28;1129;-73
2023/11/23 00:49:42;;;;;;;4.10;3.40;;;;;;;;;;523706;28;1395;-73
2023/11/23 00:49:58;;;;;;;4.07;3.30;;;;;;;;;;523499;28;1361;-73
2023/11/23 00:50:13;;;;;;;4.53;3.35;;;;;;;;;;523545;28;1299;-72
2023/11/23 00:50:28;;;;;;;4.90;3.60;;;;;;;;;;523249;28;2260;-73
2023/11/23 00:50:45;;;;;;;5.43;3.58;;;;;;;;;;523706;28;1354;-73
2023/11/23 00:51:01;;;;;;;5.60;3.40;;;;;;;;;;524034;28;1436;-73
2023/11/23 00:51:17;;;;;;;5.00;3.20;;;;;;;;;;524110;28;1286;-72
2023/11/23 00:51:32;;;;;;;4.70;3.33;;;;;;;;;;524151;28;1195;-73
2023/11/23 00:51:47;;;;;;;4.10;3.60;;;;;;;;;;520809;28;1756;-73
2023/11/23 00:52:03;;;;;;;5.00;3.50;;;;;;;;;;521512;28;1878;-73
2023/11/23 00:52:18;;;;;;;4.95;3.42;;;;;;;;;;522193;28;1286;-73
2023/11/23 00:52:33;;;;;;;4.30;3.40;;;;;;;;;;521592;28;1380;-72
2023/11/23 00:52:48;;;;;;;4.17;3.40;;;;;;;;;;521038;28;1311;-73
2023/11/23 00:53:04;;;;;;;4.63;3.40;;;;;;;;;;521624;28;1369;-73
2023/11/23 00:53:19;;;;;;;5.03;3.50;;;;;;;;;;522343;28;1441;-72
2023/11/23 00:53:34;;;;;;;4.47;3.40;;;;;;;;;;521800;28;1361;-72
2023/11/23 00:53:49;;;;;;;4.20;3.30;;;;;;;;;;523228;28;1896;-73
2023/11/23 00:54:05;;;;;;;4.63;3.50;;;;;;;;;;523660;28;1297;-72
2023/11/23 00:54:20;;;;;;;4.57;3.50;;;;;;;;;;522515;28;1222;-73
2023/11/23 00:54:39;;;;;;;4.10;3.45;;;;;;;;;;523029;28;1385;-72
2023/11/23 00:54:56;;;;;;;4.05;3.38;;;;;;;;;;523571;28;1442;-73
2023/11/23 00:55:12;;;;;;;4.70;3.30;;;;;;;;;;522550;28;1246;-73
2023/11/23 00:55:29;;;;;;;4.30;3.43;;;;;;;;;;522869;28;1825;-73
2023/11/23 00:55:45;;;;;;;4.30;3.30;;;;;;;;;;523745;28;1349;-73
2023/11/23 00:56:01;;;;;;;4.40;3.40;;;;;;;;;;523852;28;1357;-73
2023/11/23 00:56:17;;;;;;;4.70;3.55;;;;;;;;;;523085;28;1209;-73
2023/11/23 00:56:32;;;;;;;4.47;3.50;;;;;;;;;;523926;28;1396;-73
2023/11/23 00:56:47;;;;;;;4.38;3.45;;;;;;;;;;523009;28;1482;-72
2023/11/23 00:57:05;;;;;;;4.87;3.60;;;;;;;;;;523612;28;1850;-73
2023/11/23 00:57:21;;;;;;;4.53;3.42;;;;;;;;;;523525;28;1830;-73
2023/11/23 00:57:38;;;;;;;4.87;3.53;;;;;;;;;;523592;28;1540;-72
2023/11/23 00:57:53;;;;;;;4.80;3.55;;;;;;;;;;523777;28;1281;-73
2023/11/23 00:58:08;;;;;;;4.20;3.40;;;;;;;;;;521482;28;1424;-73
2023/11/23 00:58:24;;;;;;;4.40;3.57;;;;;;;;;;521913;28;1384;-72
2023/11/23 00:58:39;;;;;;;4.40;3.60;;;;;;;;;;521355;28;1963;-73
2023/11/23 00:58:55;;;;;;;4.28;3.50;;;;;;;;;;520701;28;1378;-72
2023/11/23 00:59:10;;;;;;;4.57;3.50;;;;;;;;;;519136;28;1510;-73
2023/11/23 00:59:25;;;;;;;4.63;3.63;;;;;;;;;;519431;28;1405;-73
2023/11/23 00:59:40;;;;;;;4.77;3.50;;;;;;;;;;519553;28;1417;-72
2023/11/23 00:59:56;;;;;;;5.33;3.40;;;;;;;;;;519711;28;1418;-72
2023/11/23 01:00:12;;;;;;;5.20;3.50;;;;;;;;;;521443;28;1416;-73
2023/11/23 01:00:28;;;;;;;6.20;3.40;;;;;;;;;;522010;28;1139;-73
2023/11/23 01:00:44;;;;;;;5.75;3.40;;;;;;;;;;519268;28;1420;-73
2023/11/23 01:01:00;;;;;;;4.10;3.33;;;;;;;;;;519820;28;1553;-72
2023/11/23 01:01:16;;;;;;;4.15;3.40;;;;;;;;;;521260;28;1408;-73
2023/11/23 01:01:31;;;;;;;4.18;3.40;;;;;;;;;;521555;28;1417;-73
2023/11/23 01:01:46;;;;;;;4.97;3.50;;;;;;;;;;521933;28;1258;-73
2023/11/23 01:02:02;;;;;;;5.60;3.63;;;;;;;;;;521330;28;2211;-73
2023/11/23 01:02:19;;;;;;;5.13;3.60;;;;;;;;;;519338;28;1305;-73
2023/11/23 01:02:36;;;;;;;4.95;3.50;;;;;;;;;;520263;28;1444;-73
2023/11/23 01:02:52;;;;;;;4.88;3.47;;;;;;;;;;521647;28;1460;-73
2023/11/23 01:03:07;;;;;;;5.20;3.60;;;;;;;;;;520597;28;1301;-73
2023/11/23 01:03:24;;;;;;;5.03;3.80;;;;;;;;;;522030;28;1369;-73
2023/11/23 01:03:39;;;;;;;4.10;3.67;;;;;;;;;;519408;28;1966;-72
2023/11/23 01:03:55;;;;;;;4.43;3.47;;;;;;;;;;519183;28;1416;-73
2023/11/23 01:04:10;;;;;;;4.80;3.55;;;;;;;;;;520015;28;1429;-73
2023/11/23 01:04:27;;;;;;;5.67;3.70;;;;;;;;;;519243;28;1330;-73
2023/11/23 01:04:42;;;;;;;5.57;3.55;;;;;;;;;;519668;28;1441;-73
2023/11/23 01:04:58;;;;;;;5.00;3.57;;;;;;;;;;519531;28;1906;-73
2023/11/23 01:05:15;;;;;;;5.00;3.60;;;;;;;;;;519154;28;1721;-73
2023/11/23 01:05:30;;;;;;;4.75;3.58;;;;;;;;;;519795;28;1406;-72
2023/11/23 01:05:45;;;;;;;5.23;3.63;;;;;;;;;;521595;28;1373;-72
2023/11/23 01:06:01;;;;;;;4.93;3.63;;;;;;;;;;521795;28;1402;-73
2023/11/23 01:06:16;;;;;;;4.47;3.50;;;;;;;;;;522471;28;1380;-73
2023/11/23 01:06:33;;;;;;;4.47;3.50;;;;;;;;;;524632;28;1447;-73
2023/11/23 01:06:48;;;;;;;6.18;3.58;;;;;;;;;;523741;28;1415;-72
2023/11/23 01:07:04;;;;;;;6.00;3.70;;;;;;;;;;523274;28;2154;-72
2023/11/23 01:07:19;;;;;;;4.80;3.50;;;;;;;;;;522012;28;1853;-72
2023/11/23 01:07:35;;;;;;;4.57;3.45;;;;;;;;;;523014;28;1115;-73
2023/11/23 01:07:50;;;;;;;4.40;3.53;;;;;;;;;;521578;28;1266;-73
2023/11/23 01:08:05;;;;;;;4.97;3.57;;;;;;;;;;521864;28;1421;-73
2023/11/23 01:08:20;;;;;;;6.03;3.77;;;;;;;;;;523121;28;1396;-73
2023/11/23 01:08:36;;;;;;;5.80;3.80;;;;;;;;;;523020;28;1730;-72
2023/11/23 01:08:51;;;;;;;5.37;3.60;;;;;;;;;;523365;28;1392;-73
2023/11/23 01:09:07;;;;;;;5.28;3.88;;;;;;;;;;523432;28;1364;-72
2023/11/23 01:09:22;;;;;;;5.43;3.72;;;;;;;;;;523592;28;1369;-72
2023/11/23 01:09:38;;;;;;;4.50;3.33;;;;;;;;;;523797;28;1396;-72
2023/11/23 01:09:53;;;;;;;3.97;3.30;;;;;;;;;;523758;28;1594;-73
2023/11/23 01:10:10;;;;;;;4.57;3.60;;;;;;;;;;522912;28;1701;-72
2023/11/23 01:10:26;;;;;;;4.25;3.60;;;;;;;;;;521251;28;1262;-73
2023/11/23 01:10:42;;;;;;;4.45;3.53;;;;;;;;;;521829;28;1520;-74
2023/11/23 01:10:59;;;;;;;4.90;3.53;;;;;;;;;;521609;28;1373;-72
2023/11/23 01:11:14;;;;;;;4.57;3.47;;;;;;;;;;520851;28;1258;-73
2023/11/23 01:11:30;;;;;;;5.90;3.65;;;;;;;;;;521443;28;1422;-72
2023/11/23 01:11:45;;;;;;;6.83;3.80;;;;;;;;;;521620;28;1858;-73
2023/11/23 01:12:01;;;;;;;5.70;3.70;;;;;;;;;;521643;28;1389;-72
2023/11/23 01:12:16;;;;;;;4.75;3.60;;;;;;;;;;522230;28;1502;-72
2023/11/23 01:12:31;;;;;;;4.70;3.90;;;;;;;;;;523722;28;1420;-72
2023/11/23 01:12:48;;;;;;;4.63;3.90;;;;;;;;;;523708;28;1491;-73
2023/11/23 01:13:04;;;;;;;4.22;3.58;;;;;;;;;;523605;28;1539;-72
2023/11/23 01:13:19;;;;;;;4.72;3.70;;;;;;;;;;522753;28;1903;-73
2023/11/23 01:13:34;;;;;;;5.90;3.93;;;;;;;;;;523309;28;1380;-73
2023/11/23 01:13:50;;;;;;;5.77;3.90;;;;;;;;;;521859;28;1451;-72
2023/11/23 01:14:08;;;;;;;4.55;3.58;;;;;;;;;;521399;28;1425;-73
2023/11/23 01:14:23;;;;;;;4.65;3.58;;;;;;;;;;521347;28;1437;-73
2023/11/23 01:14:38;;;;;;;4.80;3.78;;;;;;;;;;521617;28;1954;-72
2023/11/23 01:14:53;;;;;;;4.33;3.70;;;;;;;;;;521907;28;1905;-73
2023/11/23 01:15:09;;;;;;;4.53;3.60;;;;;;;;;;521447;28;1900;-73
2023/11/23 01:15:24;;;;;;;4.70;3.55;;;;;;;;;;521819;28;1360;-73
2023/11/23 01:15:40;;;;;;;4.63;3.50;;;;;;;;;;521761;28;1341;-73
2023/11/23 01:15:58;;;;;;;4.97;3.60;;;;;;;;;;522207;28;1467;-73
2023/11/23 01:16:13;;;;;;;5.28;3.65;;;;;;;;;;523634;28;1348;-73
2023/11/23 01:16:28;;;;;;;5.50;3.80;;;;;;;;;;523568;28;1409;-72
2023/11/23 01:16:44;;;;;;;4.70;3.63;;;;;;;;;;523081;28;1895;-73
2023/11/23 01:17:00;;;;;;;5.78;3.85;;;;;;;;;;523484;28;1158;-73
2023/11/23 01:17:16;;;;;;;5.63;3.77;;;;;;;;;;523989;28;1416;-73
2023/11/23 01:17:32;;;;;;;5.13;3.45;;;;;;;;;;523870;28;1427;-72
2023/11/23 01:17:47;;;;;;;5.88;3.72;;;;;;;;;;523639;28;1416;-73
2023/11/23 01:18:03;;;;;;;6.00;3.83;;;;;;;;;;523972;28;1234;-73
2023/11/23 01:18:18;;;;;;;6.07;3.80;;;;;;;;;;523369;28;1929;-73
2023/11/23 01:18:34;;;;;;;5.20;3.60;;;;;;;;;;523888;28;1392;-73
2023/11/23 01:18:49;;;;;;;5.15;3.65;;;;;;;;;;523413;28;1229;-73
2023/11/23 01:19:05;;;;;;;5.40;3.70;;;;;;;;;;519647;28;1327;-72
2023/11/23 01:19:20;;;;;;;4.55;3.53;;;;;;;;;;521432;28;1731;-73
2023/11/23 01:19:35;;;;;;;5.33;3.73;;;;;;;;;;521707;28;1486;-73
2023/11/23 01:19:51;;;;;;;5.83;3.80;;;;;;;;;;521448;28;1313;-72
2023/11/23 01:20:07;;;;;;;4.53;3.63;;;;;;;;;;521440;28;1262;-73
2023/11/23 01:20:22;;;;;;;4.25;3.60;;;;;;;;;;521942;28;1385;-73
2023/11/23 01:20:38;;;;;;;4.43;3.72;;;;;;;;;;521682;28;1259;-72
2023/11/23 01:20:53;;;;;;;5.10;4.13;;;;;;;;;;521640;28;1416;-72
2023/11/23 01:21:09;;;;;;;5.30;4.13;;;;;;;;;;521625;28;1381;-72
2023/11/23 01:21:24;;;;;;;6.10;4.00;;;;;;;;;;523080;28;2839;-72
2023/11/23 01:21:39;;;;;;;6.50;4.07;;;;;;;;;;522439;28;1210;-73
2023/11/23 01:21:55;;;;;;;5.40;3.97;;;;;;;;;;523964;28;1410;-73
2023/11/23 01:22:10;;;;;;;5.63;4.00;;;;;;;;;;523863;28;1404;-73
2023/11/23 01:22:25;;;;;;;5.50;4.10;;;;;;;;;;523733;28;1408;-73
2023/11/23 01:22:40;;;;;;;4.73;3.97;;;;;;;;;;523855;28;1400;-72
2023/11/23 01:22:56;;;;;;;5.15;3.90;;;;;;;;;;524070;28;1345;-73
2023/11/23 01:23:11;;;;;;;5.30;3.90;;;;;;;;;;523884;28;1232;-73
2023/11/23 01:23:27;;;;;;;5.80;4.00;;;;;;;;;;523285;28;1194;-72
2023/11/23 01:23:42;;;;;;;6.40;4.05;;;;;;;;;;521454;28;1674;-72
2023/11/23 01:23:57;;;;;;;5.10;3.93;;;;;;;;;;521279;28;1409;-72
2023/11/23 01:24:12;;;;;;;4.90;3.90;;;;;;;;;;521854;28;854;-73
2023/11/23 01:24:28;;;;;;;5.28;3.78;;;;;;;;;;520278;28;1294;-73
2023/11/23 01:24:43;;;;;;;4.97;3.83;;;;;;;;;;517942;28;1017;-73
2023/11/23 01:24:58;;;;;;;5.00;3.97;;;;;;;;;;520061;28;1909;-72
2023/11/23 01:25:13;;;;;;;4.30;3.60;;;;;;;;;;519801;28;981;-73
2023/11/23 01:25:29;;;;;;;4.20;3.57;;;;;;;;;;518885;28;2129;-73
2023/11/23 01:25:45;;;;;;;4.50;3.73;;;;;;;;;;521076;28;1010;-72
2023/11/23 01:26:00;;;;;;;4.57;3.60;;;;;;;;;;522074;28;937;-73
2023/11/23 01:26:16;;;;;;;5.03;3.73;;;;;;;;;;521805;28;1163;-72
2023/11/23 01:26:32;;;;;;;5.50;4.07;;;;;;;;;;524361;28;996;-73
2023/11/23 01:26:47;;;;;;;5.00;3.93;;;;;;;;;;524442;28;822;-73
2023/11/23 01:27:03;;;;;;;4.97;3.90;;;;;;;;;;524473;28;818;-73
2023/11/23 01:27:18;;;;;;;5.07;3.90;;;;;;;;;;524123;28;862;-73
2023/11/23 01:27:37;;;;;;;5.23;3.90;;;;;;;;;;524184;28;836;-72
2023/11/23 01:27:52;;;;;;;6.38;4.13;;;;;;;;;;524405;28;905;-73
2023/11/23 01:28:07;;;;;;;6.27;4.37;;;;;;;;;;524359;28;775;-72
2023/11/23 01:28:22;;;;;;;5.53;4.40;;;;;;;;;;525287;28;1064;-73
2023/11/23 01:28:38;;;;;;;5.00;4.17;;;;;;;;;;524024;28;1179;-73
2023/11/23 01:28:53;;;;;;;4.97;4.10;;;;;;;;;;521545;28;1565;-73
2023/11/23 01:29:09;;;;;;;5.00;4.00;;;;;;;;;;519701;28;1621;-72
2023/11/23 01:29:24;;;;;;;5.10;3.90;;;;;;;;;;521316;28;1489;-73
2023/11/23 01:29:40;;;;;;;5.13;4.00;;;;;;;;;;520106;28;1101;-73
2023/11/23 01:29:56;;;;;;;5.70;4.00;;;;;;;;;;520172;28;906;-72
2023/11/23 01:30:11;;;;;;;4.47;3.60;;;;;;;;;;520357;28;1220;-72
2023/11/23 01:30:26;;;;;;;4.82;3.72;;;;;;;;;;521303;28;1033;-73
2023/11/23 01:30:42;;;;;;;5.13;4.00;;;;;;;;;;519825;28;1264;-72
2023/11/23 01:30:57;;;;;;;5.13;4.10;;;;;;;;;;520289;28;1750;-73
2023/11/23 01:31:13;;;;;;;6.87;5.30;;;;;;;;;;521629;28;1001;-73
2023/11/23 01:31:29;;;;;;;7.27;6.33;;;;;;;;;;522476;28;827;-73
2023/11/23 01:31:44;;;;;;;6.40;5.35;;;;;;;;;;523425;28;1108;-73
2023/11/23 01:32:00;;;;;;;5.87;4.30;;;;;;;;;;522555;28;1044;-73
2023/11/23 01:32:15;;;;;;;5.13;4.20;;;;;;;;;;519477;28;1305;-72
2023/11/23 01:32:32;;;;;;;5.65;4.95;;;;;;;;;;520251;28;826;-73
2023/11/23 01:32:48;;;;;;;6.65;5.95;;;;;;;;;;519696;28;1092;-73
2023/11/23 01:33:03;;;;;;;7.33;6.40;;;;;;;;;;521281;28;811;-73
2023/11/23 01:33:18;;;;;;;8.00;6.82;;;;;;;;;;521257;28;1534;-72
2023/11/23 01:33:33;;;;;;;7.53;6.67;;;;;;;;;;520803;28;969;-73
2023/11/23 01:33:49;;;;;;;8.17;6.43;;;;;;;;;;521606;28;941;-72
2023/11/23 01:34:04;;;;;;;7.70;5.93;;;;;;;;;;522526;28;807;-72
2023/11/23 01:34:19;;;;;;;6.83;5.87;;;;;;;;;;523786;28;1183;-73
2023/11/23 01:34:34;;;;;;;7.50;5.97;;;;;;;;;;523779;28;1080;-72
2023/11/23 01:34:50;;;;;;;7.00;5.87;;;;;;;;;;521675;28;1148;-73
2023/11/23 01:35:06;;;;;;;6.80;6.07;;;;;;;;;;521900;28;1214;-73
2023/11/23 01:35:21;;;;;;;6.28;5.47;;;;;;;;;;521611;28;1290;-73
2023/11/23 01:35:37;;;;;;;6.30;5.10;;;;;;;;;;521691;28;1124;-73
2023/11/23 01:35:52;;;;;;;6.55;5.15;;;;;;;;;;522023;28;965;-72
2023/11/23 01:36:07;;;;;;;5.90;5.00;;;;;;;;;;521650;28;1077;-73
2023/11/23 01:36:23;;;;;;;6.57;5.63;;;;;;;;;;520929;28;1005;-73